Time;durP1;ratioP1;P1;durP2;ratioP2;P2;SDS_P1;SDS_P2;PMS_P1;PMS_P2;Temp;Humidity;BMP_temperature;BMP_pressure;BME280_temperature;BME280_humidity;BME280_pressure;Samples;Min_cycle;Max_cycle;Signal;HPM_P1;HPM_P2
2024/01/17 00:00:56;;;;;;;36.40;19.50;;;21.10;64.60;;;;;;4931782;28;20205;-75
2024/01/17 00:03:40;;;;;;;32.55;20.52;;;21.10;64.80;;;;;;4888896;28;20454;-74
2024/01/17 00:09:04;;;;;;;35.55;20.92;;;21.10;64.70;;;;;;4858447;28;20456;-74
2024/01/17 00:11:47;;;;;;;38.90;22.40;;;21.10;64.60;;;;;;4865055;28;22175;-75
2024/01/17 00:14:19;;;;;;;32.20;20.53;;;21.10;64.30;;;;;;4859405;28;27232;-74
2024/01/17 00:16:54;;;;;;;33.60;19.57;;;21.10;64.20;;;;;;4858693;28;21749;-75
2024/01/17 00:19:29;;;;;;;35.05;19.73;;;21.10;64.00;;;;;;4858563;28;20469;-76
2024/01/17 00:22:04;;;;;;;33.08;19.67;;;21.10;64.20;;;;;;4855119;28;20725;-75
2024/01/17 00:24:49;;;;;;;30.57;19.87;;;21.10;64.30;;;;;;4862862;28;20446;-76
2024/01/17 00:27:29;;;;;;;33.37;19.70;;;21.10;64.50;;;;;;4867174;28;20755;-74
2024/01/17 00:30:02;;;;;;;32.63;17.70;;;21.10;64.30;;;;;;4861484;28;21243;-75
2024/01/17 00:32:33;;;;;;;31.80;19.20;;;21.00;64.30;;;;;;4926401;28;20618;-75
2024/01/17 00:35:10;;;;;;;27.90;17.07;;;21.10;63.90;;;;;;4926431;28;21038;-75
2024/01/17 00:37:39;;;;;;;29.50;17.40;;;21.10;64.30;;;;;;4920108;28;25822;-75
2024/01/17 00:40:18;;;;;;;30.27;16.87;;;21.10;64.40;;;;;;4921305;28;20705;-74
2024/01/17 00:42:55;;;;;;;26.33;17.37;;;21.10;64.50;;;;;;4920158;28;20454;-76
2024/01/17 00:45:21;;;;;;;27.60;17.75;;;21.10;64.50;;;;;;4924158;28;21696;-73
2024/01/17 00:47:57;;;;;;;31.37;19.03;;;21.00;64.20;;;;;;4919737;28;20201;-75
2024/01/17 00:50:30;;;;;;;29.17;17.43;;;21.00;64.20;;;;;;4924423;28;21119;-74
2024/01/17 00:53:01;;;;;;;31.95;15.18;;;21.10;64.30;;;;;;4923293;28;20478;-75
2024/01/17 00:58:44;;;;;;;30.33;16.73;;;21.10;63.80;;;;;;4926480;28;21161;-74
2024/01/17 01:01:12;;;;;;;25.40;14.50;;;21.00;64.20;;;;;;4927086;28;20555;-75
2024/01/17 01:03:43;;;;;;;21.80;15.57;;;21.00;63.50;;;;;;4923891;28;21298;-75
2024/01/17 01:06:13;;;;;;;25.15;15.57;;;21.00;64.30;;;;;;4922132;28;25733;-76
2024/01/17 01:08:56;;;;;;;22.00;14.15;;;21.00;64.30;;;;;;4931368;28;25577;-75
2024/01/17 01:11:51;;;;;;;26.00;15.98;;;21.00;64.20;;;;;;4927210;28;20221;-75
2024/01/17 01:14:20;;;;;;;25.48;14.48;;;21.00;64.20;;;;;;4910341;28;20205;-74
2024/01/17 01:17:01;;;;;;;25.57;15.90;;;21.00;64.30;;;;;;4928003;28;20197;-74
2024/01/17 01:19:31;;;;;;;21.67;14.90;;;21.00;64.20;;;;;;4920261;28;21075;-75
2024/01/17 01:22:18;;;;;;;26.45;14.70;;;21.00;64.20;;;;;;4925609;28;21233;-75
2024/01/17 01:24:55;;;;;;;22.00;14.17;;;21.00;64.30;;;;;;4921560;28;20710;-74
2024/01/17 01:27:35;;;;;;;23.67;14.95;;;21.00;64.20;;;;;;4920938;28;20971;-75
2024/01/17 01:30:17;;;;;;;24.57;14.47;;;21.00;64.30;;;;;;4921991;28;20193;-75
2024/01/17 01:35:41;;;;;;;;;;;;;;;;;;;;;
2024/01/17 01:38:20;;;;;;;22.77;13.70;;;21.00;64.20;;;;;;4922867;28;20896;-75
2024/01/17 01:40:50;;;;;;;19.17;13.23;;;21.00;64.20;;;;;;4921346;28;21044;-74
2024/01/17 01:43:46;;;;;;;21.50;14.00;;;21.00;64.20;;;;;;4919811;28;20208;-74
2024/01/17 01:46:31;;;;;;;22.60;13.27;;;21.00;64.20;;;;;;4923821;28;21071;-74
2024/01/17 01:49:03;;;;;;;17.30;12.67;;;21.00;64.10;;;;;;4922391;28;20463;-74
2024/01/17 01:51:48;;;;;;;18.20;11.90;;;21.00;64.20;;;;;;4916945;28;20462;-73
2024/01/17 01:54:21;;;;;;;21.60;13.20;;;21.00;64.10;;;;;;4878381;28;21039;-73
2024/01/17 01:56:54;;;;;;;19.27;12.23;;;21.00;64.10;;;;;;4917959;27;20455;-76
2024/01/17 01:59:26;;;;;;;20.13;12.20;;;21.00;64.20;;;;;;4918446;28;20466;-74
2024/01/17 02:02:05;;;;;;;;;;;;;;;;;;;;;
2024/01/17 02:04:39;;;;;;;18.80;11.67;;;21.00;64.10;;;;;;4921269;28;21211;-74
2024/01/17 02:07:11;;;;;;;16.70;11.25;;;21.00;64.20;;;;;;4919783;28;21252;-75
2024/01/17 02:09:47;;;;;;;17.20;11.93;;;21.00;64.10;;;;;;4919633;28;20209;-75
2024/01/17 02:12:28;;;;;;;16.98;11.65;;;21.00;64.20;;;;;;4917526;28;20484;-74
2024/01/17 02:15:04;;;;;;;16.43;11.10;;;21.00;64.20;;;;;;4917728;28;20196;-74
2024/01/17 02:17:34;;;;;;;15.53;11.50;;;21.00;64.20;;;;;;4918011;28;20501;-74
2024/01/17 02:20:08;;;;;;;19.50;13.00;;;21.00;64.20;;;;;;4918549;28;20467;-74
2024/01/17 02:22:38;;;;;;;15.83;10.90;;;21.00;64.20;;;;;;4917047;28;20483;-73
2024/01/17 02:25:08;;;;;;;17.52;11.95;;;21.00;64.00;;;;;;4914551;28;21029;-74
2024/01/17 02:27:37;;;;;;;15.57;10.43;;;21.00;64.10;;;;;;4914983;28;20336;-75
2024/01/17 02:30:16;;;;;;;;;;;;;;;;;;;;;
2024/01/17 02:33:16;;;;;;;14.50;9.80;;;21.00;64.00;;;;;;4914210;28;20596;-75
2024/01/17 02:36:07;;;;;;;;;;;;;;;;;;;;;
2024/01/17 02:38:43;;;;;;;18.53;11.10;;;21.00;64.10;;;;;;4890702;28;20577;-73
2024/01/17 02:41:20;;;;;;;11.93;8.87;;;21.00;64.00;;;;;;4913539;28;25694;-73
2024/01/17 02:43:52;;;;;;;15.67;10.03;;;21.00;64.00;;;;;;4923945;28;20455;-75
2024/01/17 02:46:40;;;;;;;14.97;10.00;;;21.00;64.00;;;;;;4918756;28;22103;-73
2024/01/17 02:49:14;;;;;;;17.50;10.50;;;21.00;64.00;;;;;;4922072;28;20466;-74
2024/01/17 02:51:45;;;;;;;13.50;9.23;;;21.00;64.00;;;;;;4920259;28;20843;-75
2024/01/17 02:54:17;;;;;;;14.27;8.83;;;21.00;64.10;;;;;;4915989;28;20468;-75
2024/01/17 02:59:36;;;;;;;13.57;10.87;;;21.00;64.10;;;;;;4919277;28;20451;-75
2024/01/17 03:02:05;;;;;;;13.30;9.57;;;21.00;64.10;;;;;;4923128;28;20606;-73
2024/01/17 03:04:51;;;;;;;13.00;8.63;;;21.00;64.00;;;;;;4922531;28;21110;-74
2024/01/17 03:07:21;;;;;;;16.13;9.93;;;21.00;64.00;;;;;;4917837;28;21093;-76
2024/01/17 03:10:15;;;;;;;11.53;8.27;;;21.00;63.80;;;;;;4921141;28;20458;-75
2024/01/17 03:13:17;;;;;;;11.13;8.32;;;21.00;64.00;;;;;;4929226;28;20489;-74
2024/01/17 03:16:03;;;;;;;15.30;9.60;;;21.00;64.00;;;;;;4907225;28;20642;-74
2024/01/17 03:18:49;;;;;;;12.10;8.60;;;21.00;64.00;;;;;;4918821;28;20458;-74
2024/01/17 03:21:31;;;;;;;;;;;;;;;;;;;;;
2024/01/17 03:24:01;;;;;;;13.37;8.73;;;21.00;64.10;;;;;;4919615;28;21453;-74
2024/01/17 03:26:34;;;;;;;12.63;9.30;;;21.00;64.00;;;;;;4919977;28;20454;-74
2024/01/17 03:29:07;;;;;;;15.93;10.07;;;20.90;63.90;;;;;;4921171;28;21319;-74
2024/01/17 03:31:48;;;;;;;10.73;7.80;;;21.00;64.70;;;;;;4915442;28;21142;-75
2024/01/17 03:34:20;;;;;;;13.80;8.10;;;21.00;63.90;;;;;;4921767;28;21191;-74
2024/01/17 03:39:36;;;;;;;10.67;6.93;;;21.00;64.00;;;;;;4925219;28;20446;-75
2024/01/17 03:42:05;;;;;;;11.03;7.37;;;20.90;63.90;;;;;;4915266;28;21223;-75
2024/01/17 03:44:51;;;;;;;12.67;8.77;;;21.00;64.00;;;;;;4920182;28;20465;-74
2024/01/17 03:47:22;;;;;;;7.17;6.47;;;20.90;63.90;;;;;;4919880;28;21215;-72
2024/01/17 03:49:49;;;;;;;8.57;6.83;;;20.90;63.90;;;;;;4929107;28;20586;-76
2024/01/17 03:52:21;;;;;;;10.40;7.73;;;20.90;63.90;;;;;;4924202;28;21209;-76
2024/01/17 03:55:07;;;;;;;13.50;7.93;;;20.90;63.90;;;;;;4918407;28;20570;-75
2024/01/17 03:57:40;;;;;;;10.95;8.32;;;20.90;63.90;;;;;;4930482;28;20581;-73
2024/01/17 04:03:01;;;;;;;10.90;6.93;;;21.00;64.00;;;;;;4924561;28;21000;-74
2024/01/17 04:05:40;;;;;;;;;;;;;;;;;;;;;
2024/01/17 04:08:10;;;;;;;8.80;6.90;;;20.90;63.90;;;;;;4912967;28;20470;-74
2024/01/17 04:10:37;;;;;;;8.50;6.87;;;20.90;63.90;;;;;;4929359;28;20462;-74
2024/01/17 04:13:06;;;;;;;12.50;7.40;;;21.00;64.90;;;;;;4924724;28;20798;-76
2024/01/17 04:15:33;;;;;;;9.98;7.05;;;20.90;63.90;;;;;;4922892;28;20458;-72
2024/01/17 04:18:04;;;;;;;9.25;6.75;;;20.90;63.90;;;;;;4924582;28;25923;-73
2024/01/17 04:20:44;;;;;;;9.47;6.13;;;20.90;63.80;;;;;;4921896;28;20399;-75
2024/01/17 04:23:15;;;;;;;8.70;6.88;;;21.00;64.00;;;;;;4917210;28;20461;-74
2024/01/17 04:25:41;;;;;;;9.43;6.28;;;20.90;64.50;;;;;;4921528;23;20232;-78
2024/01/17 04:28:09;;;;;;;10.13;7.50;;;20.90;63.80;;;;;;4926706;28;20213;-79
2024/01/17 04:30:36;;;;;;;8.03;6.50;;;20.90;63.90;;;;;;4926443;28;20884;-79
2024/01/17 04:33:04;;;;;;;9.95;7.13;;;20.90;63.90;;;;;;4927311;28;20481;-80
2024/01/17 04:35:31;;;;;;;11.20;7.20;;;20.90;63.90;;;;;;4920989;28;20226;-81
2024/01/17 04:37:58;;;;;;;10.35;6.82;;;20.90;63.80;;;;;;4925677;28;20236;-81
2024/01/17 04:40:24;;;;;;;7.57;5.47;;;20.90;63.80;;;;;;4933647;28;20204;-80
2024/01/17 04:42:51;;;;;;;8.63;5.85;;;20.90;63.80;;;;;;4928713;28;20466;-80
2024/01/17 04:45:18;;;;;;;8.50;6.70;;;20.90;63.90;;;;;;4928527;28;20201;-78
2024/01/17 04:47:45;;;;;;;9.07;6.45;;;20.90;63.90;;;;;;4928056;28;20205;-79
2024/01/17 04:50:13;;;;;;;7.47;5.77;;;20.90;63.80;;;;;;4924599;28;20233;-79
2024/01/17 04:52:40;;;;;;;8.05;5.47;;;20.90;63.80;;;;;;4929788;28;21580;-80
2024/01/17 04:55:08;;;;;;;8.07;7.20;;;20.90;63.90;;;;;;4928823;28;20217;-79
2024/01/17 04:57:35;;;;;;;7.45;6.38;;;20.90;63.90;;;;;;4924418;28;21011;-82
2024/01/17 05:00:03;;;;;;;8.32;6.10;;;20.90;63.80;;;;;;4926737;28;20202;-78
2024/01/17 05:02:29;;;;;;;7.27;6.10;;;20.90;63.90;;;;;;4929694;28;30223;-80
2024/01/17 05:04:56;;;;;;;6.80;5.43;;;20.90;63.80;;;;;;4929059;28;20472;-79
2024/01/17 05:07:24;;;;;;;6.90;5.70;;;20.90;63.80;;;;;;4922869;28;20829;-79
2024/01/17 05:09:51;;;;;;;10.65;6.40;;;20.90;63.90;;;;;;4926978;28;20458;-80
2024/01/17 05:12:18;;;;;;;8.32;6.30;;;20.90;63.80;;;;;;4927837;28;20205;-79
2024/01/17 05:14:45;;;;;;;8.23;5.47;;;20.90;63.90;;;;;;4924263;28;20229;-79
2024/01/17 05:17:12;;;;;;;7.10;5.65;;;20.90;63.80;;;;;;4927845;28;20272;-77
2024/01/17 05:19:39;;;;;;;8.07;5.90;;;20.90;63.80;;;;;;4927717;28;20207;-80
2024/01/17 05:22:06;;;;;;;5.93;4.93;;;20.90;63.80;;;;;;4927419;28;20204;-79
2024/01/17 05:24:34;;;;;;;6.28;5.35;;;20.90;63.80;;;;;;4930657;28;20205;-79
2024/01/17 05:27:01;;;;;;;5.93;5.22;;;20.90;63.80;;;;;;4928511;28;20217;-82
2024/01/17 05:29:30;;;;;;;10.50;6.65;;;20.90;63.80;;;;;;4928844;28;20205;-81
2024/01/17 05:31:57;;;;;;;7.80;5.70;;;20.90;63.80;;;;;;4921782;28;20220;-80
2024/01/17 05:34:24;;;;;;;5.30;4.55;;;20.90;63.80;;;;;;4926873;28;20901;-78
2024/01/17 05:36:51;;;;;;;6.10;5.47;;;20.90;63.80;;;;;;4931765;28;20213;-79
2024/01/17 05:39:17;;;;;;;7.25;5.55;;;20.90;63.80;;;;;;4926950;28;20201;-80
2024/01/17 05:41:45;;;;;;;7.55;5.60;;;20.90;63.80;;;;;;4926278;28;20206;-79
2024/01/17 05:44:12;;;;;;;6.60;5.30;;;20.90;63.80;;;;;;4924775;28;20201;-78
2024/01/17 05:46:39;;;;;;;6.43;4.93;;;20.90;63.80;;;;;;4927064;28;20452;-80
2024/01/17 05:49:06;;;;;;;5.63;4.50;;;20.90;63.80;;;;;;4929769;28;20202;-79
2024/01/17 05:51:32;;;;;;;6.07;4.95;;;20.90;63.80;;;;;;4927527;28;20455;-80
2024/01/17 05:53:59;;;;;;;5.00;4.50;;;20.90;63.80;;;;;;4932557;28;20213;-79
2024/01/17 05:56:26;;;;;;;7.00;4.40;;;20.90;64.60;;;;;;4926353;28;20209;-80
2024/01/17 05:58:54;;;;;;;6.10;5.05;;;20.90;63.80;;;;;;4924183;28;22740;-79
2024/01/17 06:01:22;;;;;;;5.38;4.57;;;20.90;63.80;;;;;;4921248;28;20201;-79
2024/01/17 06:03:49;;;;;;;6.28;4.72;;;20.90;63.80;;;;;;4921202;28;20209;-81
2024/01/17 06:06:17;;;;;;;5.47;4.40;;;20.90;63.70;;;;;;4927823;28;20197;-80
2024/01/17 06:08:44;;;;;;;6.75;4.30;;;20.90;63.80;;;;;;4928380;28;20344;-81
2024/01/17 06:11:10;;;;;;;4.87;4.37;;;20.90;63.80;;;;;;4925844;28;20216;-78
2024/01/17 06:13:39;;;;;;;5.28;4.68;;;20.90;63.80;;;;;;4933406;28;20515;-79
2024/01/17 06:16:07;;;;;;;6.10;4.37;;;20.90;63.80;;;;;;4929032;28;22869;-79
2024/01/17 06:18:36;;;;;;;6.32;4.72;;;20.90;64.60;;;;;;4924066;28;20461;-79
2024/01/17 06:21:03;;;;;;;5.67;3.80;;;20.90;63.80;;;;;;4925002;28;20193;-81
2024/01/17 06:23:30;;;;;;;4.90;4.40;;;20.90;63.80;;;;;;4925629;28;20489;-79
2024/01/17 06:25:57;;;;;;;5.60;4.73;;;20.90;63.80;;;;;;4925817;28;20197;-81
2024/01/17 06:28:24;;;;;;;6.43;5.10;;;20.90;63.90;;;;;;4928000;28;20956;-79
2024/01/17 06:30:51;;;;;;;7.90;5.18;;;20.90;63.80;;;;;;4924218;28;20472;-79
2024/01/17 06:33:19;;;;;;;5.57;5.00;;;20.90;63.80;;;;;;4928438;28;20221;-81
2024/01/17 06:35:49;;;;;;;4.80;4.20;;;20.90;63.80;;;;;;4928955;28;20453;-80
2024/01/17 06:38:16;;;;;;;4.07;3.67;;;20.90;63.80;;;;;;4920327;28;20500;-81
2024/01/17 06:40:42;;;;;;;6.03;3.60;;;20.90;63.80;;;;;;4914882;28;20301;-81
2024/01/17 06:43:10;;;;;;;5.82;4.53;;;20.90;63.80;;;;;;4913315;28;20237;-81
2024/01/17 06:45:36;;;;;;;5.10;3.90;;;20.90;63.80;;;;;;4924088;28;20216;-80
2024/01/17 06:48:05;;;;;;;5.80;4.07;;;20.90;63.80;;;;;;4931281;28;20206;-77
2024/01/17 06:50:33;;;;;;;4.10;3.50;;;20.90;63.80;;;;;;4956759;28;20445;-76
2024/01/17 06:53:01;;;;;;;4.97;3.75;;;20.90;63.80;;;;;;4943075;28;20209;-78
2024/01/17 06:55:31;;;;;;;4.70;4.30;;;20.90;63.80;;;;;;4944838;28;20225;-78
2024/01/17 06:57:58;;;;;;;3.80;3.50;;;20.90;63.70;;;;;;4933184;28;20253;-79
2024/01/17 07:00:25;;;;;;;5.15;3.67;;;20.90;63.70;;;;;;4922929;28;21334;-79
2024/01/17 07:02:52;;;;;;;5.00;4.13;;;20.90;63.70;;;;;;4922983;28;21227;-81
2024/01/17 07:05:19;;;;;;;6.13;4.27;;;20.90;63.70;;;;;;4929190;28;20201;-81
2024/01/17 07:07:47;;;;;;;4.23;3.40;;;20.90;63.70;;;;;;4936111;28;20546;-80
2024/01/17 07:10:14;;;;;;;4.75;4.00;;;20.90;63.70;;;;;;4926978;28;20563;-79
2024/01/17 07:12:41;;;;;;;4.95;3.60;;;20.80;63.50;;;;;;4924319;28;20205;-81
2024/01/17 07:15:08;;;;;;;4.28;3.40;;;20.90;63.60;;;;;;4922606;28;21249;-80
2024/01/17 07:17:35;;;;;;;5.53;3.60;;;20.80;63.50;;;;;;4927833;28;20291;-79
2024/01/17 07:20:03;;;;;;;4.38;3.95;;;20.80;63.50;;;;;;4926547;28;20209;-80
2024/01/17 07:22:30;;;;;;;4.90;4.30;;;20.80;63.70;;;;;;4928283;28;25951;-80
2024/01/17 07:24:59;;;;;;;4.45;3.92;;;20.80;63.70;;;;;;4922125;28;20469;-80
2024/01/17 07:27:26;;;;;;;4.67;3.73;;;20.80;63.70;;;;;;4921931;28;20365;-81
2024/01/17 07:29:52;;;;;;;4.90;3.50;;;20.80;63.70;;;;;;4913577;28;21092;-81
2024/01/17 07:32:19;;;;;;;4.00;3.00;;;20.80;63.80;;;;;;4913390;28;20467;-81
2024/01/17 07:34:46;;;;;;;6.03;4.40;;;20.80;63.80;;;;;;4911915;28;20483;-79
2024/01/17 07:37:12;;;;;;;5.15;3.80;;;20.80;63.80;;;;;;4919793;28;20211;-81
2024/01/17 07:39:39;;;;;;;4.10;3.70;;;20.80;63.80;;;;;;4918502;28;21118;-78
2024/01/17 07:42:08;;;;;;;5.30;3.90;;;20.80;63.80;;;;;;4912183;28;20472;-78
2024/01/17 07:44:35;;;;;;;3.72;3.15;;;20.90;63.90;;;;;;4915532;28;20217;-78
2024/01/17 07:47:02;;;;;;;5.35;3.50;;;20.90;63.90;;;;;;4913716;28;20824;-80
2024/01/17 07:49:29;;;;;;;4.95;3.80;;;20.90;63.90;;;;;;4930586;28;20209;-78
2024/01/17 07:51:56;;;;;;;3.73;3.10;;;20.90;63.90;;;;;;4916447;28;21219;-80
2024/01/17 07:54:23;;;;;;;3.63;2.88;;;20.90;63.90;;;;;;4919200;28;20599;-81
2024/01/17 07:56:50;;;;;;;2.95;2.45;;;20.90;63.80;;;;;;4918608;28;21132;-79
2024/01/17 07:59:18;;;;;;;4.63;3.50;;;20.90;63.80;;;;;;4924916;28;20213;-80
2024/01/17 08:01:45;;;;;;;3.30;3.00;;;20.90;63.80;;;;;;4927040;28;20464;-80
2024/01/17 08:04:13;;;;;;;4.60;3.70;;;20.90;63.80;;;;;;4925403;28;20208;-80
2024/01/17 08:06:40;;;;;;;3.10;2.40;;;20.90;63.80;;;;;;4920618;28;21507;-80
2024/01/17 08:09:20;;;;;;;3.83;3.43;;;20.90;63.70;;;;;;4922419;28;20205;-80
2024/01/17 08:11:47;;;;;;;4.18;3.28;;;20.90;63.80;;;;;;4921948;28;20892;-81
2024/01/17 08:14:14;;;;;;;4.03;3.28;;;20.90;63.70;;;;;;4918795;28;20217;-80
2024/01/17 08:16:43;;;;;;;4.47;3.15;;;20.90;63.70;;;;;;4930206;28;20205;-80
2024/01/17 08:19:10;;;;;;;3.77;3.13;;;20.90;63.70;;;;;;4926410;28;20205;-81
2024/01/17 08:21:37;;;;;;;5.90;3.50;;;20.90;63.70;;;;;;4923604;28;20495;-79
2024/01/17 08:24:04;;;;;;;4.18;3.78;;;20.90;63.70;;;;;;4921272;28;20213;-78
2024/01/17 08:26:31;;;;;;;4.22;3.90;;;20.90;64.50;;;;;;4932785;28;20513;-81
2024/01/17 08:28:59;;;;;;;4.55;3.75;;;20.90;63.70;;;;;;4931534;28;20607;-79
2024/01/17 08:31:26;;;;;;;2.90;2.55;;;20.90;63.70;;;;;;4930123;28;20333;-79
2024/01/17 08:33:54;;;;;;;3.40;2.80;;;20.90;63.70;;;;;;4927395;28;20647;-80
2024/01/17 08:36:21;;;;;;;4.28;2.55;;;20.90;63.70;;;;;;4932361;28;20465;-81
2024/01/17 08:38:48;;;;;;;3.92;3.55;;;20.90;63.70;;;;;;4928304;28;20893;-78
2024/01/17 08:41:19;;;;;;;3.45;2.78;;;20.90;63.70;;;;;;4929565;28;20208;-81
2024/01/17 08:43:46;;;;;;;3.40;2.93;;;20.90;63.70;;;;;;4925680;28;20257;-79
2024/01/17 08:46:13;;;;;;;2.58;2.05;;;20.80;63.60;;;;;;4925426;28;20475;-80
2024/01/17 08:48:41;;;;;;;3.35;2.75;;;20.80;63.70;;;;;;4922891;28;20301;-80
2024/01/17 08:51:09;;;;;;;3.60;3.15;;;20.80;63.60;;;;;;4930403;28;20228;-80
2024/01/17 08:53:36;;;;;;;2.90;2.50;;;20.80;63.60;;;;;;4925244;28;20197;-79
2024/01/17 08:56:05;;;;;;;3.00;2.70;;;20.90;63.70;;;;;;4925024;28;21594;-79
2024/01/17 08:58:31;;;;;;;3.25;2.95;;;20.80;63.60;;;;;;4925334;28;20456;-80
2024/01/17 09:00:59;;;;;;;3.07;2.37;;;20.80;63.60;;;;;;4917333;28;21218;-81
2024/01/17 09:03:29;;;;;;;3.42;2.75;;;20.90;63.80;;;;;;4916233;28;20465;-82
2024/01/17 09:05:55;;;;;;;2.97;2.67;;;20.90;63.80;;;;;;4923178;28;20714;-78
2024/01/17 09:08:24;;;;;;;2.90;2.60;;;20.90;63.70;;;;;;4927151;28;20463;-80
2024/01/17 09:10:50;;;;;;;2.80;2.60;;;20.90;63.70;;;;;;4920806;28;21301;-77
2024/01/17 09:13:17;;;;;;;4.15;3.30;;;20.90;63.70;;;;;;4918511;28;20554;-79
2024/01/17 09:15:45;;;;;;;3.60;2.80;;;20.90;63.70;;;;;;4920146;28;20221;-77
2024/01/17 09:18:12;;;;;;;2.50;2.30;;;20.90;63.70;;;;;;4916259;28;20201;-81
2024/01/17 09:20:38;;;;;;;3.15;2.85;;;20.90;63.70;;;;;;4916169;28;20201;-78
2024/01/17 09:23:05;;;;;;;3.25;2.83;;;20.80;63.50;;;;;;4911101;28;20209;-82
2024/01/17 09:25:33;;;;;;;2.88;2.63;;;20.80;63.60;;;;;;4918106;28;20286;-80
2024/01/17 09:28:00;;;;;;;3.38;2.70;;;20.80;63.50;;;;;;4908898;28;20237;-79
2024/01/17 09:30:27;;;;;;;2.73;2.40;;;20.80;63.50;;;;;;4900259;28;20244;-78
2024/01/17 09:32:53;;;;;;;2.88;2.22;;;20.80;63.40;;;;;;4912722;28;20469;-76
2024/01/17 09:35:20;;;;;;;3.35;2.97;;;20.80;63.30;;;;;;4907279;28;20221;-78
2024/01/17 09:37:47;;;;;;;3.10;2.73;;;20.80;63.20;;;;;;4897475;28;20238;-76
2024/01/17 09:40:14;;;;;;;4.38;2.90;;;20.80;63.30;;;;;;4893867;28;21294;-79
2024/01/17 09:42:42;;;;;;;3.10;2.33;;;20.80;63.40;;;;;;4897801;28;20205;-78
2024/01/17 09:45:12;;;;;;;4.00;3.00;;;20.70;63.50;;;;;;4903834;28;20475;-76
2024/01/17 09:47:41;;;;;;;3.50;2.90;;;20.70;63.50;;;;;;4910755;28;20213;-76
2024/01/17 09:50:08;;;;;;;2.78;2.58;;;20.80;63.70;;;;;;4914506;28;20231;-75
2024/01/17 09:52:36;;;;;;;2.53;2.30;;;20.70;63.60;;;;;;4914676;28;20201;-77
2024/01/17 09:55:05;;;;;;;4.07;3.10;;;20.80;63.70;;;;;;4906227;28;20754;-76
2024/01/17 09:57:35;;;;;;;2.30;2.10;;;20.80;63.80;;;;;;4912175;28;25920;-76
2024/01/17 10:00:07;;;;;;;2.97;2.10;;;20.80;63.70;;;;;;4911391;28;20459;-75
2024/01/17 10:02:35;;;;;;;3.70;2.13;;;20.80;63.40;;;;;;4925643;28;20214;-77
2024/01/17 10:05:05;;;;;;;2.70;2.43;;;20.80;63.10;;;;;;4915154;28;20461;-77
2024/01/17 10:07:31;;;;;;;3.75;2.72;;;20.80;62.90;;;;;;4913586;28;20533;-76
2024/01/17 10:09:58;;;;;;;2.42;2.17;;;20.80;62.80;;;;;;4917554;28;20213;-77
2024/01/17 10:12:26;;;;;;;3.97;3.10;;;20.80;62.70;;;;;;4916263;28;20212;-76
2024/01/17 10:14:52;;;;;;;2.90;2.60;;;20.80;62.70;;;;;;4917745;28;20252;-77
2024/01/17 10:17:21;;;;;;;2.60;2.40;;;20.80;62.60;;;;;;4915469;28;20457;-77
2024/01/17 10:19:47;;;;;;;3.57;2.20;;;20.90;62.60;;;;;;4916360;28;20202;-78
2024/01/17 10:22:14;;;;;;;2.90;2.33;;;20.90;62.50;;;;;;4916135;28;21280;-80
2024/01/17 10:24:42;;;;;;;5.82;2.47;;;20.90;62.50;;;;;;4918925;28;20471;-78
2024/01/17 10:27:09;;;;;;;3.05;2.75;;;20.90;62.50;;;;;;4922159;28;20266;-79
2024/01/17 10:29:38;;;;;;;2.42;2.22;;;20.90;62.30;;;;;;4921067;28;20205;-77
2024/01/17 10:32:05;;;;;;;2.97;2.67;;;20.90;62.10;;;;;;4916908;28;20735;-79
2024/01/17 10:34:34;;;;;;;3.75;2.80;;;20.90;62.10;;;;;;4920846;28;20464;-76
2024/01/17 10:37:04;;;;;;;2.75;2.30;;;20.90;62.00;;;;;;4925305;28;20209;-79
2024/01/17 10:39:31;;;;;;;2.50;2.08;;;20.90;61.80;;;;;;4927648;28;20983;-77
2024/01/17 10:41:59;;;;;;;2.70;2.27;;;20.90;62.00;;;;;;4923689;28;20212;-77
2024/01/17 10:44:27;;;;;;;2.80;2.60;;;20.90;61.80;;;;;;4920345;28;20472;-78
2024/01/17 10:46:54;;;;;;;3.28;2.78;;;20.90;61.70;;;;;;4922335;28;20782;-78
2024/01/17 10:49:22;;;;;;;3.35;2.08;;;20.90;61.70;;;;;;4924121;28;20205;-75
2024/01/17 10:51:57;;;;;;;7.03;2.40;;;20.90;61.70;;;;;;4916353;28;20233;-81
2024/01/17 10:54:27;;;;;;;3.13;2.70;;;20.90;61.60;;;;;;4919784;28;20208;-80
2024/01/17 10:56:55;;;;;;;2.13;1.65;;;20.90;61.30;;;;;;4903540;28;20210;-79
2024/01/17 10:59:23;;;;;;;3.13;2.83;;;20.80;61.20;;;;;;4903289;28;20197;-76
2024/01/17 11:01:51;;;;;;;2.57;2.30;;;20.80;60.40;;;;;;4907633;28;20289;-79
2024/01/17 11:04:22;;;;;;;4.00;2.83;;;20.70;59.10;;;;;;4906615;28;20555;-79
2024/01/17 11:06:51;;;;;;;7.55;2.72;;;20.80;59.90;;;;;;4930629;28;22064;-78
2024/01/17 11:09:19;;;;;;;6.32;2.50;;;20.80;60.40;;;;;;4965351;28;20209;-82
2024/01/17 11:11:47;;;;;;;3.00;2.30;;;20.80;60.50;;;;;;4968387;28;20228;-82
2024/01/17 11:14:15;;;;;;;3.00;2.70;;;20.90;61.00;;;;;;4966408;28;20298;-81
2024/01/17 11:16:46;;;;;;;3.47;2.17;;;20.90;61.30;;;;;;4961653;28;20225;-81
2024/01/17 11:19:16;;;;;;;3.55;2.67;;;20.90;61.90;;;;;;4960606;28;20806;-86
2024/01/17 11:21:43;;;;;;;13.27;3.38;;;20.90;62.00;;;;;;4962489;28;20201;-82
2024/01/17 11:24:20;;;;;;;2.63;1.90;;;21.00;62.20;;;;;;4960920;28;20580;-83
2024/01/17 11:26:56;;;;;;;2.28;2.08;;;21.00;62.40;;;;;;4962580;28;20216;-84
2024/01/17 11:29:28;;;;;;;2.42;2.00;;;21.00;62.50;;;;;;4963460;28;20205;-82
2024/01/17 11:32:04;;;;;;;2.78;2.20;;;21.00;62.50;;;;;;4967539;28;20196;-83
2024/01/17 11:34:31;;;;;;;2.40;1.80;;;21.00;62.60;;;;;;4966978;28;21086;-82
2024/01/17 11:36:58;;;;;;;2.03;1.52;;;21.10;62.80;;;;;;4967721;28;20883;-83
2024/01/17 11:39:26;;;;;;;2.10;1.90;;;21.10;62.80;;;;;;4968872;28;20217;-85
2024/01/17 11:41:54;;;;;;;3.72;1.95;;;21.10;62.90;;;;;;4965240;28;20210;-83
2024/01/17 11:44:22;;;;;;;5.10;2.17;;;21.20;63.00;;;;;;4966246;28;20564;-84
2024/01/17 11:46:51;;;;;;;2.67;2.00;;;21.20;63.10;;;;;;4963795;28;20204;-84
2024/01/17 11:49:31;;;;;;;2.00;1.60;;;21.20;63.10;;;;;;4970696;28;20468;-85
2024/01/17 11:51:59;;;;;;;2.47;1.70;;;21.30;63.20;;;;;;4964851;28;21651;-82
2024/01/17 11:54:27;;;;;;;2.67;2.07;;;21.30;63.20;;;;;;4966307;28;20471;-82
2024/01/17 11:56:57;;;;;;;1.60;1.30;;;21.30;63.20;;;;;;4965824;28;20480;-83
2024/01/17 11:59:25;;;;;;;2.55;1.73;;;21.30;63.20;;;;;;4965092;28;20463;-82
2024/01/17 12:01:53;;;;;;;3.20;1.52;;;21.30;63.30;;;;;;4965567;28;20199;-83
2024/01/17 12:04:20;;;;;;;2.10;1.47;;;21.30;63.40;;;;;;4966998;28;20234;-86
2024/01/17 12:06:49;;;;;;;2.20;1.77;;;21.40;63.50;;;;;;4964891;28;20470;-85
2024/01/17 12:09:18;;;;;;;2.20;1.70;;;21.30;63.50;;;;;;4970090;28;20201;-84
2024/01/17 12:11:47;;;;;;;2.20;1.90;;;21.40;63.70;;;;;;4971130;28;21125;-86
2024/01/17 12:14:14;;;;;;;6.57;1.80;;;21.40;63.60;;;;;;4972722;28;20214;-85
2024/01/17 12:16:41;;;;;;;2.40;1.90;;;21.40;63.60;;;;;;4975181;28;20221;-88
2024/01/17 12:19:10;;;;;;;3.00;2.13;;;21.40;63.70;;;;;;4973837;28;20477;-87
2024/01/17 12:21:37;;;;;;;2.40;1.70;;;21.40;63.70;;;;;;4974185;28;20464;-84
2024/01/17 12:24:04;;;;;;;2.15;1.83;;;21.40;63.70;;;;;;4974728;28;20468;-90
2024/01/17 12:26:34;;;;;;;1.80;1.40;;;21.40;63.70;;;;;;4979747;28;20197;-81
2024/01/17 12:29:09;;;;;;;5.63;1.60;;;21.50;64.00;;;;;;4979902;28;20487;-81
2024/01/17 12:31:37;;;;;;;2.53;1.50;;;21.50;64.00;;;;;;4969820;28;20818;-83
2024/01/17 12:34:06;;;;;;;1.70;1.57;;;21.50;64.00;;;;;;4968970;28;20463;-88
2024/01/17 12:36:35;;;;;;;2.05;1.67;;;21.50;64.10;;;;;;4968400;28;20494;-83
2024/01/17 12:39:03;;;;;;;3.50;2.33;;;21.50;64.20;;;;;;4974561;28;20210;-84
2024/01/17 12:41:30;;;;;;;2.07;1.77;;;21.50;64.00;;;;;;4972763;28;20448;-84
2024/01/17 12:43:57;;;;;;;2.10;1.50;;;21.60;64.20;;;;;;4975638;28;20963;-85
2024/01/17 12:46:25;;;;;;;1.90;1.70;;;21.60;64.20;;;;;;4971894;28;20985;-83
2024/01/17 12:48:56;;;;;;;1.50;1.33;;;21.60;64.30;;;;;;4976231;28;20467;-84
2024/01/17 12:51:23;;;;;;;6.33;1.70;;;21.60;64.20;;;;;;4977351;28;20471;-85
2024/01/17 12:53:50;;;;;;;1.60;1.50;;;21.60;64.20;;;;;;4969579;28;20472;-83
2024/01/17 12:56:17;;;;;;;1.53;1.43;;;21.60;64.20;;;;;;4964972;28;20486;-82
2024/01/17 12:58:45;;;;;;;2.00;1.50;;;21.70;64.30;;;;;;4969163;28;20495;-84
2024/01/17 13:01:13;;;;;;;1.70;1.30;;;21.70;64.30;;;;;;4970802;28;20557;-84
2024/01/17 13:03:44;;;;;;;6.63;1.37;;;21.70;64.50;;;;;;4973047;28;20528;-81
2024/01/17 13:06:12;;;;;;;2.53;1.80;;;21.80;64.60;;;;;;4971630;28;20469;-85
2024/01/17 13:08:39;;;;;;;3.67;1.53;;;21.80;64.60;;;;;;4973522;28;20544;-81
2024/01/17 13:11:15;;;;;;;1.73;1.30;;;21.80;64.60;;;;;;4963054;28;20933;-87
2024/01/17 13:13:42;;;;;;;1.50;1.23;;;21.80;64.60;;;;;;4972366;28;20468;-85
2024/01/17 13:16:09;;;;;;;2.83;1.30;;;21.80;64.80;;;;;;4970228;28;20490;-87
2024/01/17 13:18:36;;;;;;;1.70;1.47;;;21.80;64.80;;;;;;4964744;28;20487;-82
2024/01/17 13:21:13;;;;;;;1.63;1.53;;;21.90;64.90;;;;;;4971136;28;21147;-80